createdAt,value
2018-09-21T00:01:13.922Z,16.90
2018-09-21T00:03:46.634Z,16.90
2018-09-21T00:06:15.128Z,16.90
2018-09-21T00:08:43.644Z,16.80
2018-09-21T00:11:12.186Z,16.80
2018-09-21T00:13:40.656Z,16.80
2018-09-21T00:16:09.156Z,16.80
2018-09-21T00:18:37.630Z,16.80
2018-09-21T00:21:06.238Z,16.80
2018-09-21T00:23:34.718Z,16.70
2018-09-21T00:26:03.251Z,16.70
2018-09-21T00:28:31.752Z,16.60
2018-09-21T00:31:00.245Z,16.70
2018-09-21T00:33:28.765Z,16.60
2018-09-21T00:35:57.274Z,16.60
2018-09-21T00:38:25.742Z,16.50
2018-09-21T00:40:54.193Z,16.50
2018-09-21T00:43:22.714Z,16.50
2018-09-21T00:45:51.166Z,16.50
2018-09-21T00:48:19.607Z,16.50
2018-09-21T00:50:48.054Z,16.40
2018-09-21T00:53:16.656Z,16.40
2018-09-21T00:55:45.175Z,16.40
2018-09-21T00:58:13.690Z,16.30
2018-09-21T01:00:42.213Z,16.30
2018-09-21T01:03:10.672Z,16.30
2018-09-21T01:05:39.176Z,16.20
2018-09-21T01:08:07.648Z,16.20
2018-09-21T01:10:36.220Z,16.20
2018-09-21T01:13:04.716Z,16.20
2018-09-21T01:15:33.202Z,16.10
2018-09-21T01:18:02.120Z,16.10
2018-09-21T01:20:30.563Z,16.00
2018-09-21T01:22:59.131Z,16.00
2018-09-21T01:25:27.573Z,16.00
2018-09-21T01:27:56.122Z,15.90
2018-09-21T01:30:24.603Z,15.90
2018-09-21T01:32:53.487Z,15.90
2018-09-21T01:35:22.015Z,15.90
2018-09-21T01:37:50.519Z,15.80
2018-09-21T01:40:19.000Z,15.80
2018-09-21T01:42:48.335Z,15.80
2018-09-21T01:45:16.811Z,15.80
2018-09-21T01:47:45.268Z,15.80
2018-09-21T01:50:13.918Z,15.80
2018-09-21T01:52:42.409Z,15.80
2018-09-21T01:55:10.852Z,15.80
2018-09-21T01:57:39.333Z,15.80
2018-09-21T02:00:07.841Z,15.80
2018-09-21T02:02:36.320Z,15.70
2018-09-21T02:05:04.846Z,15.80
2018-09-21T02:07:33.332Z,15.70
2018-09-21T02:10:01.909Z,15.70
2018-09-21T02:12:30.372Z,15.60
2018-09-21T02:14:58.890Z,15.60
2018-09-21T02:17:27.368Z,15.50
2018-09-21T02:19:56.273Z,15.50
2018-09-21T02:22:24.838Z,15.50
2018-09-21T02:24:53.421Z,15.50
2018-09-21T02:27:21.946Z,15.40
2018-09-21T02:29:50.461Z,15.50
2018-09-21T02:32:18.950Z,15.40
2018-09-21T02:34:47.405Z,15.40
2018-09-21T02:37:15.883Z,15.40
2018-09-21T02:39:44.339Z,15.40
2018-09-21T02:42:12.828Z,15.50
2018-09-21T02:44:41.304Z,15.50
2018-09-21T02:47:09.744Z,15.50
2018-09-21T02:49:38.966Z,15.50
2018-09-21T02:52:07.573Z,15.50
2018-09-21T02:54:36.101Z,15.60
2018-09-21T02:57:04.908Z,15.50
2018-09-21T02:59:33.371Z,15.50
2018-09-21T03:02:01.837Z,15.50
2018-09-21T03:04:30.308Z,15.50
2018-09-21T03:06:58.775Z,15.50
2018-09-21T03:09:27.266Z,15.50
2018-09-21T03:11:55.727Z,15.50
2018-09-21T03:14:24.227Z,15.40
2018-09-21T03:16:52.813Z,15.40
2018-09-21T03:19:21.303Z,15.40
2018-09-21T03:21:49.761Z,15.40
2018-09-21T03:24:18.205Z,15.30
2018-09-21T03:26:46.708Z,15.30
2018-09-21T03:29:15.179Z,15.30
2018-09-21T03:31:44.432Z,15.30
2018-09-21T03:34:12.929Z,15.30
2018-09-21T03:36:41.432Z,15.30
2018-09-21T03:39:10.854Z,15.30
2018-09-21T03:41:39.782Z,15.30
2018-09-21T03:44:08.259Z,15.30
2018-09-21T03:46:36.747Z,15.30
2018-09-21T03:49:05.299Z,15.30
2018-09-21T03:51:33.838Z,15.30
2018-09-21T03:54:02.413Z,15.30
2018-09-21T03:56:30.874Z,15.30
2018-09-21T03:58:59.393Z,15.30
2018-09-21T04:01:27.836Z,15.30
2018-09-21T04:03:56.319Z,15.40
2018-09-21T04:06:24.921Z,15.40
2018-09-21T04:08:53.491Z,15.40
2018-09-21T04:11:21.972Z,15.30
2018-09-21T04:13:50.482Z,15.30
2018-09-21T04:16:18.954Z,15.30
2018-09-21T04:18:47.485Z,15.30
2018-09-21T04:21:15.994Z,15.30
2018-09-21T04:23:44.611Z,15.20
2018-09-21T04:26:13.135Z,15.20
2018-09-21T04:28:41.850Z,15.20
2018-09-21T04:31:10.370Z,15.20
2018-09-21T04:33:38.867Z,15.10
2018-09-21T04:36:07.376Z,15.10
2018-09-21T04:38:35.906Z,15.10
2018-09-21T04:41:04.407Z,15.20
2018-09-21T04:43:32.984Z,15.10
2018-09-21T04:46:01.401Z,15.10
2018-09-21T04:48:29.977Z,15.10
2018-09-21T04:50:58.804Z,15.10
2018-09-21T04:53:27.295Z,15.10
2018-09-21T04:55:55.807Z,15.10
2018-09-21T04:58:24.261Z,15.10
2018-09-21T05:00:52.738Z,15.10
2018-09-21T05:03:21.365Z,15.10
2018-09-21T05:05:49.816Z,15.10
2018-09-21T05:08:18.277Z,15.10
2018-09-21T05:10:46.765Z,15.10
2018-09-21T05:13:15.253Z,15.20
2018-09-21T05:15:43.718Z,15.20
2018-09-21T05:18:12.181Z,15.20
2018-09-21T05:20:40.645Z,15.20
2018-09-21T05:23:09.127Z,15.20
2018-09-21T05:25:37.578Z,15.30
2018-09-21T05:28:06.214Z,15.30
2018-09-21T05:30:34.706Z,15.40
2018-09-21T05:33:03.169Z,15.50
2018-09-21T05:35:31.655Z,15.50
2018-09-21T05:38:00.095Z,15.60
2018-09-21T05:40:28.575Z,15.80
2018-09-21T05:42:57.328Z,15.90
2018-09-21T05:45:25.885Z,16.00
2018-09-21T05:47:54.325Z,16.10
2018-09-21T05:50:22.796Z,16.30
2018-09-21T05:52:51.242Z,16.50
2018-09-21T05:55:19.737Z,16.60
2018-09-21T05:57:48.166Z,16.80
2018-09-21T06:00:17.506Z,16.90
2018-09-21T06:02:46.585Z,17.20
2018-09-21T06:05:15.028Z,17.30
2018-09-21T06:07:43.954Z,17.60
2018-09-21T06:10:12.378Z,17.70
2018-09-21T06:12:40.842Z,17.80
2018-09-21T06:15:10.102Z,18.00
2018-09-21T06:17:38.548Z,18.10
2018-09-21T06:20:12.477Z,18.00
2018-09-21T06:22:44.850Z,18.10
2018-09-21T06:25:04.499Z,18.10
2018-09-21T06:27:32.965Z,18.20
2018-09-21T06:30:01.403Z,18.40
2018-09-21T06:32:29.887Z,18.70
2018-09-21T06:34:58.368Z,19.00
2018-09-21T06:37:26.846Z,19.20
2018-09-21T06:39:55.326Z,19.50
2018-09-21T06:42:23.820Z,19.60
2018-09-21T06:44:52.294Z,19.80
2018-09-21T06:47:20.832Z,19.90
2018-09-21T06:49:49.310Z,20.10
2018-09-21T06:52:17.784Z,20.20
2018-09-21T06:54:46.282Z,20.30
2018-09-21T06:57:14.748Z,20.40
2018-09-21T06:59:43.220Z,20.50
2018-09-21T07:02:11.680Z,20.60
2018-09-21T07:04:40.204Z,20.80
2018-09-21T07:07:08.783Z,21.00
2018-09-21T07:09:37.225Z,21.30
2018-09-21T07:12:05.739Z,21.50
2018-09-21T07:14:34.239Z,21.70
2018-09-21T07:17:02.725Z,21.90
2018-09-21T07:19:31.173Z,21.90
2018-09-21T07:21:59.668Z,22.00
2018-09-21T07:24:28.427Z,22.20
2018-09-21T07:26:56.971Z,22.30
2018-09-21T07:29:25.431Z,22.40
2018-09-21T07:31:53.900Z,22.50
2018-09-21T07:34:22.380Z,22.70
2018-09-21T07:39:13.265Z,22.90
2018-09-21T07:41:41.707Z,23.20
2018-09-21T07:44:10.197Z,23.20
2018-09-21T07:46:38.681Z,23.30
2018-09-21T07:49:07.163Z,23.40
2018-09-21T07:51:35.651Z,23.50
2018-09-21T07:54:04.139Z,23.60
2018-09-21T07:56:32.658Z,23.80
2018-09-21T07:59:01.110Z,23.90
2018-09-21T08:01:30.583Z,24.20
2018-09-21T08:03:59.022Z,24.30
2018-09-21T08:06:27.501Z,24.40
2018-09-21T08:08:56.093Z,24.60
2018-09-21T08:11:24.532Z,24.70
2018-09-21T08:13:53.085Z,24.90
2018-09-21T08:16:21.676Z,25.10
2018-09-21T08:18:50.222Z,25.30
2018-09-21T08:21:18.698Z,25.50
2018-09-21T08:23:47.237Z,25.60
2018-09-21T08:26:15.712Z,25.70
2018-09-21T08:28:44.213Z,25.80
2018-09-21T08:31:12.712Z,25.80
2018-09-21T08:33:41.191Z,25.90
2018-09-21T08:36:09.694Z,26.00
2018-09-21T08:38:38.146Z,26.00
2018-09-21T08:41:06.822Z,26.00
2018-09-21T08:43:35.299Z,26.00
2018-09-21T08:46:03.777Z,26.20
2018-09-21T08:48:32.263Z,26.30
2018-09-21T08:51:00.694Z,26.40
2018-09-21T08:53:29.156Z,26.50
2018-09-21T08:55:57.644Z,26.70
2018-09-21T08:58:26.140Z,26.80
2018-09-21T09:00:54.683Z,26.90
2018-09-21T09:03:23.221Z,26.90
2018-09-21T09:05:51.741Z,27.10
2018-09-21T09:08:20.798Z,27.30
2018-09-21T09:10:49.307Z,27.50
2018-09-21T09:13:18.491Z,27.60
2018-09-21T09:15:47.276Z,27.80
2018-09-21T09:18:15.765Z,27.90
2018-09-21T09:20:44.294Z,28.10
2018-09-21T09:23:12.807Z,28.40
2018-09-21T09:25:41.261Z,28.60
2018-09-21T09:28:09.727Z,28.80
2018-09-21T09:30:38.496Z,28.90
2018-09-21T09:33:07.021Z,29.00
2018-09-21T09:35:35.437Z,29.20
2018-09-21T09:38:03.953Z,29.40
2018-09-21T09:40:32.438Z,29.50
2018-09-21T09:43:01.005Z,29.60
2018-09-21T09:45:29.446Z,29.70
2018-09-21T09:47:57.951Z,29.80
2018-09-21T09:50:26.432Z,29.80
2018-09-21T09:52:54.902Z,29.90
2018-09-21T09:55:23.374Z,30.00
2018-09-21T09:57:51.875Z,29.90
2018-09-21T10:00:54.999Z,29.90
2018-09-21T10:03:24.651Z,30.00
2018-09-21T10:05:53.127Z,29.80
2018-09-21T10:08:21.621Z,30.00
2018-09-21T10:10:50.092Z,30.10
2018-09-21T10:13:18.591Z,30.10
2018-09-21T10:15:47.119Z,30.10
2018-09-21T10:18:15.590Z,30.20
2018-09-21T10:20:44.105Z,30.30
2018-09-21T10:23:12.591Z,30.40
2018-09-21T10:25:41.081Z,30.40
2018-09-21T10:28:09.542Z,30.50
2018-09-21T10:30:38.053Z,30.50
2018-09-21T10:33:06.534Z,30.40
2018-09-21T10:35:35.105Z,30.40
2018-09-21T10:38:03.469Z,30.40
2018-09-21T10:40:32.020Z,30.40
2018-09-21T10:43:00.511Z,30.40
2018-09-21T10:45:28.997Z,30.40
2018-09-21T10:47:57.512Z,30.40
2018-09-21T10:50:26.034Z,30.50
2018-09-21T10:52:54.472Z,30.60
2018-09-21T10:55:22.954Z,30.60
2018-09-21T10:57:51.405Z,30.60
2018-09-21T11:00:19.978Z,30.60
2018-09-21T11:02:48.417Z,30.70
2018-09-21T11:05:16.886Z,30.70
2018-09-21T11:07:45.391Z,30.80
2018-09-21T11:10:13.865Z,30.80
2018-09-21T11:12:42.373Z,31.00
2018-09-21T11:15:10.858Z,31.10
2018-09-21T11:17:39.365Z,31.20
2018-09-21T11:20:07.873Z,31.20
2018-09-21T11:22:36.327Z,31.30
2018-09-21T11:25:04.929Z,31.30
2018-09-21T11:27:33.421Z,31.50
2018-09-21T11:30:01.893Z,31.50
2018-09-21T11:32:30.401Z,31.60
2018-09-21T11:34:58.891Z,31.50
2018-09-21T11:37:27.381Z,31.50
2018-09-21T11:39:55.888Z,31.40
2018-09-21T11:42:24.398Z,31.60
2018-09-21T11:44:52.912Z,31.70
2018-09-21T11:47:21.568Z,31.70
2018-09-21T11:49:49.971Z,31.60
2018-09-21T11:52:18.456Z,31.50
2018-09-21T11:54:47.189Z,31.40
2018-09-21T11:57:15.710Z,31.50
2018-09-21T11:59:44.160Z,31.50
2018-09-21T12:02:12.693Z,31.40
2018-09-21T12:04:41.151Z,31.40
2018-09-21T12:07:09.592Z,31.30
2018-09-21T12:09:38.074Z,31.20
2018-09-21T12:12:06.590Z,31.20
2018-09-21T12:14:35.058Z,31.10
2018-09-21T12:17:03.603Z,30.80
2018-09-21T12:19:32.085Z,30.50
2018-09-21T12:22:00.610Z,30.30
2018-09-21T12:24:29.139Z,30.20
2018-09-21T12:26:57.640Z,30.10
2018-09-21T12:29:26.199Z,30.00
2018-09-21T12:31:54.828Z,30.00
2018-09-21T12:34:23.355Z,29.90
2018-09-21T12:36:51.840Z,29.90
2018-09-21T12:39:20.337Z,30.00
2018-09-21T12:41:48.867Z,30.00
2018-09-21T12:44:18.294Z,30.10
2018-09-21T12:46:46.791Z,30.20
2018-09-21T12:49:15.222Z,30.20
2018-09-21T12:51:43.718Z,30.20
2018-09-21T12:54:12.186Z,30.20
2018-09-21T12:56:40.721Z,30.20
2018-09-21T12:59:09.217Z,30.30
2018-09-21T13:01:37.742Z,30.40
2018-09-21T13:04:06.233Z,30.40
2018-09-21T13:06:34.770Z,30.50
2018-09-21T13:09:03.439Z,30.50
2018-09-21T13:11:31.907Z,30.60
2018-09-21T13:14:00.500Z,30.70
2018-09-21T13:16:28.988Z,30.80
2018-09-21T13:18:57.418Z,30.80
2018-09-21T13:21:25.906Z,30.90
2018-09-21T13:23:54.457Z,31.00
2018-09-21T13:26:22.910Z,31.10
2018-09-21T13:28:51.380Z,31.20
2018-09-21T13:31:19.993Z,31.30
2018-09-21T13:33:48.500Z,31.30
2018-09-21T13:36:16.983Z,31.20
2018-09-21T13:38:45.398Z,31.20
2018-09-21T13:41:13.912Z,31.20
2018-09-21T13:43:42.344Z,31.20
2018-09-21T13:46:10.824Z,31.20
2018-09-21T13:48:39.310Z,31.10
2018-09-21T13:51:07.783Z,30.90
2018-09-21T13:53:36.274Z,30.80
2018-09-21T13:56:04.702Z,30.90
2018-09-21T13:58:33.177Z,30.90
2018-09-21T14:01:01.684Z,31.00
2018-09-21T14:03:30.159Z,31.00
2018-09-21T14:06:02.899Z,31.00
2018-09-21T14:08:31.419Z,31.00
2018-09-21T14:10:59.991Z,31.00
2018-09-21T14:13:28.488Z,31.00
2018-09-21T14:15:56.966Z,31.00
2018-09-21T14:18:25.543Z,31.00
2018-09-21T14:20:54.153Z,30.90
2018-09-21T14:23:22.636Z,30.80
2018-09-21T14:25:51.128Z,30.70
2018-09-21T14:28:19.571Z,30.80
2018-09-21T14:30:48.065Z,30.80
2018-09-21T14:33:16.513Z,30.90
2018-09-21T14:35:45.017Z,30.80
2018-09-21T14:38:13.475Z,30.90
2018-09-21T14:40:41.977Z,31.00
2018-09-21T14:43:10.475Z,31.00
2018-09-21T14:45:38.963Z,31.00
2018-09-21T14:48:07.443Z,31.10
2018-09-21T14:50:35.987Z,31.00
2018-09-21T14:53:04.440Z,31.00
2018-09-21T14:55:32.933Z,31.10
2018-09-21T14:58:01.454Z,31.10
2018-09-21T15:00:30.017Z,31.10
2018-09-21T15:02:58.513Z,31.00
2018-09-21T15:05:26.990Z,31.00
2018-09-21T15:07:55.443Z,30.70
2018-09-21T15:10:23.928Z,30.40
2018-09-21T15:12:52.397Z,30.10
2018-09-21T15:15:20.898Z,29.90
2018-09-21T15:17:49.371Z,29.70
2018-09-21T15:20:17.878Z,29.50
2018-09-21T15:22:46.319Z,29.30
2018-09-21T15:25:14.801Z,29.10
2018-09-21T15:27:43.278Z,29.00
2018-09-21T15:30:11.779Z,28.90
2018-09-21T15:32:40.303Z,28.80
2018-09-21T15:35:08.790Z,28.60
2018-09-21T15:37:37.278Z,28.60
2018-09-21T15:40:05.815Z,28.40
2018-09-21T15:42:34.315Z,28.40
2018-09-21T15:45:02.938Z,28.30
2018-09-21T15:47:31.412Z,28.20
2018-09-21T15:49:59.902Z,28.10
2018-09-21T15:52:28.371Z,28.00
2018-09-21T15:54:56.862Z,27.90
2018-09-21T15:57:25.308Z,27.80
2018-09-21T15:59:53.822Z,27.70
2018-09-21T16:02:22.303Z,27.70
2018-09-21T16:04:50.820Z,27.60
2018-09-21T16:07:19.278Z,27.60
2018-09-21T16:09:47.737Z,27.50
2018-09-21T16:12:16.286Z,27.40
2018-09-21T16:14:44.737Z,27.30
2018-09-21T16:17:13.239Z,27.20
2018-09-21T16:19:41.712Z,27.20
2018-09-21T16:22:10.206Z,27.10
2018-09-21T16:24:38.756Z,27.00
2018-09-21T16:27:07.249Z,26.90
2018-09-21T16:29:35.708Z,26.80
2018-09-21T16:32:04.196Z,26.70
2018-09-21T16:34:32.675Z,26.60
2018-09-21T16:37:01.178Z,26.40
2018-09-21T16:39:29.669Z,26.40
2018-09-21T16:41:58.132Z,26.30
2018-09-21T16:44:26.699Z,26.30
2018-09-21T16:46:55.174Z,26.30
2018-09-21T16:49:23.671Z,26.20
2018-09-21T16:51:52.158Z,26.10
2018-09-21T16:54:20.629Z,26.00
2018-09-21T16:56:49.147Z,25.90
2018-09-21T16:59:17.622Z,25.90
2018-09-21T17:01:46.157Z,25.70
2018-09-21T17:04:14.682Z,25.60
2018-09-21T17:06:43.501Z,25.50
2018-09-21T17:09:12.670Z,25.40
2018-09-21T17:11:41.262Z,25.30
2018-09-21T17:14:09.725Z,25.20
2018-09-21T17:16:38.192Z,25.10
2018-09-21T17:19:06.803Z,25.00
2018-09-21T17:21:35.251Z,24.90
2018-09-21T17:24:04.106Z,24.90
2018-09-21T17:26:32.880Z,24.80
2018-09-21T17:29:01.679Z,24.80
2018-09-21T17:31:30.230Z,24.70
2018-09-21T17:33:58.782Z,24.70
2018-09-21T17:36:27.423Z,24.60
2018-09-21T17:38:56.156Z,24.60
2018-09-21T17:41:24.718Z,24.60
2018-09-21T17:43:53.290Z,24.50
2018-09-21T17:46:21.935Z,24.40
2018-09-21T17:48:51.310Z,24.40
2018-09-21T17:51:19.928Z,24.30
2018-09-21T17:53:48.526Z,24.20
2018-09-21T17:56:17.147Z,24.10
2018-09-21T17:58:45.855Z,24.10
2018-09-21T18:01:14.355Z,24.00
2018-09-21T18:03:42.907Z,24.00
2018-09-21T18:06:11.529Z,23.90
2018-09-21T18:08:40.278Z,23.90
2018-09-21T18:11:08.796Z,23.90
2018-09-21T18:13:37.392Z,23.80
2018-09-21T18:16:06.018Z,23.80
2018-09-21T18:18:34.525Z,23.80
2018-09-21T18:21:03.749Z,23.70
2018-09-21T18:23:32.958Z,23.70
2018-09-21T18:26:01.869Z,23.70
2018-09-21T18:28:30.434Z,23.60
2018-09-21T18:30:59.001Z,23.60
2018-09-21T18:33:27.578Z,23.60
2018-09-21T18:35:56.130Z,23.50
2018-09-21T18:38:25.034Z,23.40
2018-09-21T18:40:53.553Z,23.10
2018-09-21T18:43:22.118Z,23.00
2018-09-21T18:45:50.667Z,22.80
2018-09-21T18:48:19.383Z,22.70
2018-09-21T18:50:48.590Z,22.60
2018-09-21T18:53:17.401Z,22.50
2018-09-21T18:55:46.977Z,22.40
2018-09-21T18:58:16.160Z,22.30
2018-09-21T19:00:44.907Z,22.30
2018-09-21T19:03:14.348Z,22.20
2018-09-21T19:05:43.286Z,22.20
2018-09-21T19:08:13.191Z,22.10
2018-09-21T19:10:42.268Z,22.00
2018-09-21T19:13:12.125Z,21.80
2018-09-21T19:15:41.283Z,21.70
2018-09-21T19:18:10.631Z,21.60
2018-09-21T19:20:39.608Z,21.60
2018-09-21T19:23:09.441Z,21.50
2018-09-21T19:25:38.436Z,21.40
2018-09-21T19:28:08.063Z,21.30
2018-09-21T19:30:37.257Z,21.20
2018-09-21T19:33:06.786Z,21.20
2018-09-21T19:35:36.133Z,21.10
2018-09-21T19:38:05.221Z,21.10
2018-09-21T19:40:34.066Z,20.90
2018-09-21T19:43:03.022Z,20.80
2018-09-21T19:45:32.095Z,20.80
2018-09-21T19:48:01.421Z,20.70
2018-09-21T19:50:30.456Z,20.70
2018-09-21T19:52:59.228Z,20.70
2018-09-21T19:55:29.052Z,20.70
2018-09-21T19:57:58.288Z,20.70
2018-09-21T20:00:27.030Z,20.70
2018-09-21T20:02:55.613Z,20.60
2018-09-21T20:05:24.266Z,20.60
2018-09-21T20:07:52.856Z,20.50
2018-09-21T20:10:21.431Z,20.50
2018-09-21T20:12:50.434Z,20.50
2018-09-21T20:15:19.033Z,20.40
2018-09-21T20:17:48.022Z,20.30
2018-09-21T20:20:16.656Z,20.10
2018-09-21T20:22:45.382Z,19.80
2018-09-21T20:25:13.925Z,19.60
2018-09-21T20:27:43.217Z,19.30
2018-09-21T20:30:17.151Z,18.90
2018-09-21T20:32:51.024Z,18.70
2018-09-21T20:35:19.660Z,18.40
2018-09-21T20:37:48.250Z,18.20
2018-09-21T20:40:17.522Z,18.00
2018-09-21T20:42:46.094Z,17.80
2018-09-21T20:45:15.446Z,17.60
2018-09-21T20:47:43.928Z,17.40
2018-09-21T20:50:12.519Z,17.20
2018-09-21T20:52:41.068Z,16.90
2018-09-21T20:55:10.463Z,16.70
2018-09-21T20:57:38.989Z,16.50
2018-09-21T21:00:07.541Z,16.30
2018-09-21T21:02:36.035Z,16.10
2018-09-21T21:05:04.863Z,16.00
2018-09-21T21:07:33.337Z,15.80
2018-09-21T21:10:01.824Z,15.70
2018-09-21T21:12:30.327Z,15.50
2018-09-21T21:14:58.822Z,15.40
2018-09-21T21:17:27.274Z,15.20
2018-09-21T21:19:55.755Z,14.90
2018-09-21T21:22:24.395Z,14.80
2018-09-21T21:24:52.871Z,14.60
2018-09-21T21:27:21.389Z,14.30
2018-09-21T21:29:50.101Z,14.20
2018-09-21T21:32:18.907Z,14.10
2018-09-21T21:34:47.456Z,14.00
2018-09-21T21:37:16.569Z,13.90
2018-09-21T21:39:45.022Z,13.80
2018-09-21T21:42:13.535Z,13.70
2018-09-21T21:44:42.078Z,13.60
2018-09-21T21:47:10.846Z,13.50
2018-09-21T21:49:39.322Z,13.40
2018-09-21T21:52:07.789Z,13.30
2018-09-21T21:54:36.410Z,13.30
2018-09-21T21:57:04.888Z,13.20
2018-09-21T21:59:33.475Z,13.10
2018-09-21T22:02:01.939Z,13.00
2018-09-21T22:04:30.439Z,12.90
2018-09-21T22:06:59.019Z,12.90
2018-09-21T22:09:27.497Z,12.80
2018-09-21T22:12:01.299Z,12.70
2018-09-21T22:14:29.786Z,12.70
2018-09-21T22:16:58.734Z,12.70
2018-09-21T22:19:27.211Z,12.70
2018-09-21T22:21:55.674Z,12.70
2018-09-21T22:24:24.556Z,12.70
2018-09-21T22:26:53.008Z,12.60
2018-09-21T22:29:21.558Z,12.50
2018-09-21T22:31:50.396Z,12.60
2018-09-21T22:34:18.917Z,12.60
2018-09-21T22:36:47.409Z,12.50
2018-09-21T22:39:16.260Z,12.40
2018-09-21T22:41:44.745Z,12.40
2018-09-21T22:44:13.221Z,12.40
2018-09-21T22:46:41.668Z,12.40
2018-09-21T22:49:20.637Z,12.40
2018-09-21T22:51:49.141Z,12.40
2018-09-21T22:54:17.648Z,12.40
2018-09-21T22:56:46.248Z,12.40
2018-09-21T22:59:14.835Z,12.40
2018-09-21T23:01:43.331Z,12.30
2018-09-21T23:04:11.832Z,12.30
2018-09-21T23:06:40.331Z,12.30
2018-09-21T23:09:10.896Z,12.20
2018-09-21T23:11:39.644Z,12.20
2018-09-21T23:14:08.390Z,12.40
2018-09-21T23:16:36.916Z,12.40
2018-09-21T23:19:06.425Z,12.50
2018-09-21T23:21:35.249Z,12.50
2018-09-21T23:24:03.733Z,12.50
2018-09-21T23:26:32.251Z,12.50
2018-09-21T23:29:00.838Z,12.50
2018-09-21T23:31:29.340Z,12.50
2018-09-21T23:33:57.866Z,12.50
2018-09-21T23:36:26.434Z,12.50
2018-09-21T23:38:55.497Z,12.50
2018-09-21T23:41:24.050Z,12.50
2018-09-21T23:43:52.605Z,12.50
2018-09-21T23:46:21.064Z,12.50
2018-09-21T23:48:49.544Z,12.50
2018-09-21T23:51:18.048Z,12.50
2018-09-21T23:53:46.525Z,12.50
2018-09-21T23:56:14.978Z,12.50
2018-09-21T23:58:43.490Z,12.50
